Time;durP1;ratioP1;P1;durP2;ratioP2;P2;SDS_P1;SDS_P2;PMS_P1;PMS_P2;Temp;Humidity;BMP_temperature;BMP_pressure;BME280_temperature;BME280_humidity;BME280_pressure;Samples;Min_cycle;Max_cycle;Signal;HPM_P1;HPM_P2
2021/08/03 00:01:10;;;;;;;4.63;2.97;;;13.50;99.90;;;;;;5019022;28;20183;-83
2021/08/03 00:03:44;;;;;;;3.40;2.60;;;13.50;99.90;;;;;;5019269;28;20178;-82
2021/08/03 00:06:16;;;;;;;4.30;2.30;;;13.50;99.90;;;;;;5019659;28;20187;-83
2021/08/03 00:08:45;;;;;;;2.57;2.00;;;13.50;99.90;;;;;;5019209;28;20159;-83
2021/08/03 00:11:10;;;;;;;2.30;2.10;;;13.50;99.90;;;;;;5019093;28;20175;-83
2021/08/03 00:13:38;;;;;;;2.87;1.80;;;13.50;99.90;;;;;;5019315;28;20229;-83
2021/08/03 00:16:09;;;;;;;2.47;2.00;;;13.40;99.90;;;;;;5019238;28;20213;-83
2021/08/03 00:18:37;;;;;;;3.03;1.50;;;13.40;99.90;;;;;;5019672;28;20609;-83
2021/08/03 00:21:04;;;;;;;1.83;1.40;;;13.30;99.90;;;;;;5019194;28;20250;-83
2021/08/03 00:23:30;;;;;;;3.20;1.67;;;13.30;99.90;;;;;;5023769;28;20182;-83
2021/08/03 00:25:56;;;;;;;2.03;1.50;;;13.30;99.90;;;;;;5030407;28;20198;-83
2021/08/03 00:28:22;;;;;;;1.73;1.50;;;13.20;99.90;;;;;;5024571;28;20190;-82
2021/08/03 00:30:48;;;;;;;1.53;1.20;;;13.10;99.90;;;;;;5017248;28;20182;-83
2021/08/03 00:33:15;;;;;;;3.47;1.40;;;13.10;99.90;;;;;;5032087;28;20189;-82
2021/08/03 00:35:41;;;;;;;2.23;1.47;;;13.00;99.90;;;;;;5015733;28;20272;-83
2021/08/03 00:38:07;;;;;;;1.20;1.10;;;13.00;99.90;;;;;;5015023;28;20598;-82
2021/08/03 00:40:36;;;;;;;3.43;1.40;;;13.00;99.90;;;;;;5016633;28;20167;-82
2021/08/03 00:43:02;;;;;;;1.63;1.50;;;13.00;99.90;;;;;;5015997;28;20171;-82
2021/08/03 00:45:28;;;;;;;2.37;1.77;;;13.00;99.90;;;;;;5019099;28;20246;-82
2021/08/03 00:47:54;;;;;;;2.73;1.73;;;12.90;99.90;;;;;;5015428;28;20190;-82
2021/08/03 00:50:20;;;;;;;1.47;1.37;;;12.90;99.90;;;;;;5020257;28;20183;-83
2021/08/03 00:52:46;;;;;;;1.70;1.60;;;12.90;99.90;;;;;;5016530;28;20175;-83
2021/08/03 00:55:12;;;;;;;2.37;1.90;;;12.90;99.90;;;;;;5017854;28;20202;-83
2021/08/03 00:57:39;;;;;;;2.60;1.80;;;12.90;99.90;;;;;;5017083;28;20207;-83
2021/08/03 01:00:06;;;;;;;2.37;1.80;;;12.80;99.90;;;;;;5016933;28;20179;-83
2021/08/03 01:02:36;;;;;;;1.50;1.40;;;12.70;99.90;;;;;;5017793;28;20171;-82
2021/08/03 01:05:04;;;;;;;3.37;2.00;;;12.70;99.90;;;;;;5016657;28;20563;-83
2021/08/03 01:07:59;;;;;;;2.47;1.67;;;12.60;99.90;;;;;;5016684;28;20190;-83
2021/08/03 01:10:36;;;;;;;2.00;1.80;;;12.60;99.90;;;;;;5016882;28;20586;-83
2021/08/03 01:13:12;;;;;;;1.70;1.60;;;12.60;99.90;;;;;;5016519;28;20198;-84
2021/08/03 01:15:56;;;;;;;2.00;1.27;;;12.60;99.90;;;;;;5017880;28;20194;-83
2021/08/03 01:18:41;;;;;;;7.37;2.00;;;12.60;99.90;;;;;;5018266;28;20241;-83
2021/08/03 01:21:24;;;;;;;2.70;1.60;;;12.60;99.90;;;;;;5016586;28;20194;-83
2021/08/03 01:24:13;;;;;;;2.50;2.10;;;12.60;99.90;;;;;;5016378;28;20179;-83
2021/08/03 01:27:10;;;;;;;2.20;2.00;;;12.60;99.90;;;;;;5016086;28;20209;-83
2021/08/03 01:29:37;;;;;;;2.47;1.90;;;12.60;99.90;;;;;;5016176;28;20174;-83
2021/08/03 01:32:09;;;;;;;2.73;2.17;;;12.60;99.90;;;;;;5016670;28;20278;-83
2021/08/03 01:34:40;;;;;;;1.90;1.70;;;12.60;99.90;;;;;;5016256;28;20252;-83
2021/08/03 01:37:07;;;;;;;3.10;1.87;;;12.60;99.90;;;;;;5016301;28;20206;-83
2021/08/03 01:39:44;;;;;;;2.40;1.97;;;12.50;99.90;;;;;;5016262;28;20175;-83
2021/08/03 01:42:11;;;;;;;1.97;1.77;;;12.60;99.90;;;;;;5017493;28;20767;-83
2021/08/03 01:44:37;;;;;;;2.50;2.30;;;12.50;99.90;;;;;;5015880;28;20293;-83
2021/08/03 01:47:04;;;;;;;2.33;2.13;;;12.40;99.90;;;;;;5016552;28;20188;-83
2021/08/03 01:49:35;;;;;;;4.30;2.27;;;12.40;99.90;;;;;;5016793;28;20251;-83
2021/08/03 01:52:05;;;;;;;4.47;2.20;;;12.40;99.90;;;;;;5020730;28;20582;-83
2021/08/03 01:54:31;;;;;;;2.77;2.40;;;12.40;99.90;;;;;;5021126;28;20250;-83
2021/08/03 01:56:57;;;;;;;2.87;2.20;;;12.40;99.90;;;;;;5021607;28;20678;-83
2021/08/03 01:59:23;;;;;;;3.60;2.60;;;12.50;99.90;;;;;;5020173;28;20202;-83
2021/08/03 02:01:51;;;;;;;2.73;2.27;;;12.50;99.90;;;;;;5020432;28;20186;-83
2021/08/03 02:04:18;;;;;;;2.90;2.60;;;12.50;99.90;;;;;;5020019;28;20195;-83
2021/08/03 02:06:46;;;;;;;2.90;2.33;;;12.50;99.90;;;;;;5020647;28;20232;-83
2021/08/03 02:09:14;;;;;;;3.70;2.67;;;12.50;99.90;;;;;;5020636;28;20171;-83
2021/08/03 02:11:41;;;;;;;2.63;2.10;;;12.50;99.90;;;;;;5020353;28;20182;-83
2021/08/03 02:14:07;;;;;;;4.37;3.00;;;12.50;99.90;;;;;;5019085;28;20189;-83
2021/08/03 02:16:33;;;;;;;4.27;2.57;;;12.50;99.90;;;;;;5020555;28;20262;-83
2021/08/03 02:19:02;;;;;;;2.80;2.30;;;12.50;99.90;;;;;;5035979;28;20203;-82
2021/08/03 02:21:27;;;;;;;5.17;2.33;;;12.50;99.90;;;;;;5019490;28;20183;-83
2021/08/03 02:23:53;;;;;;;2.90;2.60;;;12.50;99.90;;;;;;5019980;28;20177;-84
2021/08/03 02:26:19;;;;;;;3.63;3.10;;;12.50;99.90;;;;;;5019025;28;20183;-83
2021/08/03 02:28:45;;;;;;;3.27;2.70;;;12.40;99.90;;;;;;5020787;28;20667;-83
2021/08/03 02:31:42;;;;;;;3.30;2.70;;;12.40;99.90;;;;;;5019292;28;20243;-83
2021/08/03 02:34:23;;;;;;;3.23;2.83;;;12.50;99.90;;;;;;5018709;28;20253;-83
2021/08/03 02:36:55;;;;;;;3.40;3.00;;;12.50;99.90;;;;;;5018634;28;20203;-83
2021/08/03 02:39:23;;;;;;;4.67;2.87;;;12.50;99.90;;;;;;5019099;28;20166;-83
2021/08/03 02:41:50;;;;;;;3.27;2.90;;;12.40;99.90;;;;;;5018794;28;20181;-83
2021/08/03 02:44:18;;;;;;;4.43;2.30;;;12.40;99.90;;;;;;5018769;28;20210;-83
2021/08/03 02:46:47;;;;;;;4.07;3.10;;;12.40;99.90;;;;;;5020036;28;20217;-83
2021/08/03 02:49:17;;;;;;;3.07;2.27;;;12.30;99.90;;;;;;5018271;28;20186;-82
2021/08/03 02:51:45;;;;;;;4.53;3.10;;;12.30;99.90;;;;;;5019954;28;20191;-82
2021/08/03 02:54:16;;;;;;;3.63;2.70;;;12.30;99.90;;;;;;5017893;28;20214;-83
2021/08/03 02:56:44;;;;;;;4.17;2.87;;;12.30;99.90;;;;;;5019159;28;20233;-83
2021/08/03 02:59:13;;;;;;;5.30;2.97;;;12.30;99.90;;;;;;5018899;28;20175;-82
2021/08/03 03:01:41;;;;;;;3.67;2.70;;;12.30;99.90;;;;;;5018743;28;20178;-82
2021/08/03 03:04:29;;;;;;;3.60;2.90;;;12.30;99.90;;;;;;5017931;28;20629;-82
2021/08/03 03:07:01;;;;;;;3.80;2.83;;;12.30;99.90;;;;;;5019329;28;20515;-82
2021/08/03 03:09:29;;;;;;;8.07;3.03;;;12.30;99.90;;;;;;5022491;28;20230;-83
2021/08/03 03:11:57;;;;;;;4.93;3.13;;;12.30;99.90;;;;;;5021014;28;20182;-83
2021/08/03 03:14:26;;;;;;;4.60;2.80;;;12.20;99.90;;;;;;5019774;28;20212;-83
2021/08/03 03:16:56;;;;;;;5.50;3.07;;;12.20;99.90;;;;;;5033502;28;20199;-82
2021/08/03 03:19:23;;;;;;;5.57;3.40;;;12.20;99.90;;;;;;5033162;28;20199;-82
2021/08/03 03:21:49;;;;;;;7.87;3.37;;;12.20;99.90;;;;;;5023416;28;20225;-83
2021/08/03 03:24:16;;;;;;;4.00;2.90;;;12.20;99.90;;;;;;5019463;28;20245;-83
2021/08/03 03:26:44;;;;;;;5.73;2.80;;;12.20;99.90;;;;;;5018165;28;20205;-83
2021/08/03 03:29:11;;;;;;;3.70;3.17;;;12.20;99.90;;;;;;5019500;28;20262;-83
2021/08/03 03:31:38;;;;;;;4.30;3.00;;;12.20;99.90;;;;;;5018026;28;20178;-83
2021/08/03 03:34:06;;;;;;;7.73;3.40;;;12.10;99.90;;;;;;5034474;28;20259;-83
2021/08/03 03:36:34;;;;;;;5.47;3.67;;;12.10;99.90;;;;;;5019204;28;20686;-82
2021/08/03 03:39:02;;;;;;;5.20;3.40;;;12.10;99.90;;;;;;5019024;28;20177;-83
2021/08/03 03:41:30;;;;;;;5.07;3.77;;;12.00;99.90;;;;;;5017832;28;20171;-83
2021/08/03 03:43:56;;;;;;;4.63;2.83;;;11.90;99.90;;;;;;5016974;28;20175;-83
2021/08/03 03:46:28;;;;;;;3.27;2.97;;;11.90;99.90;;;;;;5018455;28;20205;-83
2021/08/03 03:49:15;;;;;;;3.67;2.97;;;11.90;99.90;;;;;;5019357;28;20187;-83
2021/08/03 03:51:43;;;;;;;4.23;3.13;;;11.90;99.90;;;;;;5017289;28;20502;-83
2021/08/03 03:54:13;;;;;;;4.30;3.30;;;11.90;99.90;;;;;;5017120;28;20186;-83
2021/08/03 03:56:47;;;;;;;4.03;3.10;;;11.90;99.90;;;;;;5017524;28;20213;-82
2021/08/03 03:59:18;;;;;;;6.07;3.30;;;11.90;99.90;;;;;;5017506;28;20163;-83
2021/08/03 04:01:47;;;;;;;3.80;3.13;;;11.90;99.90;;;;;;5017739;28;20179;-83
2021/08/03 04:04:14;;;;;;;5.27;2.93;;;11.90;99.90;;;;;;5017134;28;20199;-83
2021/08/03 04:06:40;;;;;;;3.40;2.73;;;11.90;99.90;;;;;;5016900;28;20179;-83
2021/08/03 04:09:19;;;;;;;5.17;2.97;;;11.80;99.90;;;;;;5017021;28;20197;-83
2021/08/03 04:11:46;;;;;;;3.37;2.80;;;11.80;99.90;;;;;;5018630;28;20178;-83
2021/08/03 04:14:16;;;;;;;3.37;2.80;;;11.80;99.90;;;;;;5016001;28;20210;-83
2021/08/03 04:16:42;;;;;;;4.67;3.47;;;11.80;99.90;;;;;;5018448;28;20198;-83
2021/08/03 04:19:08;;;;;;;3.77;2.93;;;11.80;99.90;;;;;;5016844;28;20228;-83
2021/08/03 04:21:33;;;;;;;3.53;3.17;;;11.70;99.90;;;;;;5017315;28;20577;-83
2021/08/03 04:23:59;;;;;;;4.33;3.03;;;11.70;99.90;;;;;;5016796;28;20186;-83
2021/08/03 04:26:25;;;;;;;4.40;3.33;;;11.70;99.90;;;;;;5018234;28;20182;-83
2021/08/03 04:28:50;;;;;;;3.17;2.87;;;11.70;99.90;;;;;;5016620;28;20222;-83
2021/08/03 04:31:16;;;;;;;5.93;3.63;;;11.70;99.90;;;;;;5016543;28;20178;-83
2021/08/03 04:33:41;;;;;;;5.40;3.23;;;11.70;99.90;;;;;;5018022;28;20177;-84
2021/08/03 04:36:07;;;;;;;5.13;3.10;;;11.70;99.90;;;;;;5033166;28;20195;-83
2021/08/03 04:38:33;;;;;;;4.10;3.30;;;11.70;99.90;;;;;;5016624;28;20210;-83
2021/08/03 04:40:58;;;;;;;4.77;3.37;;;11.80;99.90;;;;;;5017753;28;20179;-83
2021/08/03 04:43:24;;;;;;;3.63;3.20;;;11.70;99.90;;;;;;5016280;28;20184;-83
2021/08/03 04:45:49;;;;;;;5.67;3.40;;;11.80;99.90;;;;;;5016205;28;20212;-83
2021/08/03 04:48:15;;;;;;;4.17;3.30;;;11.80;99.90;;;;;;5017588;28;20217;-83
2021/08/03 04:50:41;;;;;;;4.50;3.70;;;11.90;99.90;;;;;;5017849;28;20229;-83
2021/08/03 04:53:07;;;;;;;4.13;3.30;;;11.90;99.90;;;;;;5018364;28;20175;-83
2021/08/03 04:55:32;;;;;;;5.50;3.57;;;12.00;99.90;;;;;;5016499;28;20234;-83
2021/08/03 04:57:58;;;;;;;6.30;3.20;;;12.00;99.90;;;;;;5016446;28;20348;-83
2021/08/03 05:00:24;;;;;;;6.20;3.73;;;12.10;99.90;;;;;;5019726;28;20163;-83
2021/08/03 05:02:49;;;;;;;6.10;3.17;;;12.10;99.90;;;;;;5016928;28;20166;-83
2021/08/03 05:05:15;;;;;;;3.80;3.07;;;12.30;99.90;;;;;;5018530;28;20252;-84
2021/08/03 05:07:52;;;;;;;4.73;2.90;;;12.30;99.90;;;;;;5017365;28;20198;-83
2021/08/03 05:10:17;;;;;;;5.13;3.40;;;12.40;99.90;;;;;;5017479;28;20179;-83
2021/08/03 05:12:43;;;;;;;3.60;2.83;;;12.50;99.90;;;;;;5016772;28;20244;-83
2021/08/03 05:15:09;;;;;;;5.33;3.30;;;12.60;99.90;;;;;;5015831;28;20705;-83
2021/08/03 05:17:35;;;;;;;6.20;3.93;;;12.70;99.90;;;;;;5016842;28;20712;-83
2021/08/03 05:20:01;;;;;;;4.17;2.63;;;12.80;99.90;;;;;;5015318;28;20659;-83
2021/08/03 05:22:27;;;;;;;6.03;3.13;;;12.90;99.90;;;;;;5016476;28;20178;-83
2021/08/03 05:24:53;;;;;;;4.93;3.00;;;13.00;99.90;;;;;;5016149;28;20194;-83
2021/08/03 05:27:20;;;;;;;5.70;3.37;;;13.00;99.90;;;;;;5015981;28;20270;-83
2021/08/03 05:29:45;;;;;;;3.40;3.10;;;13.00;99.90;;;;;;5015119;28;20174;-82
2021/08/03 05:32:12;;;;;;;3.47;2.50;;;13.00;99.90;;;;;;5014108;28;20209;-84
2021/08/03 05:34:37;;;;;;;4.80;2.77;;;13.10;99.90;;;;;;5015410;28;20204;-82
2021/08/03 05:37:04;;;;;;;3.00;2.70;;;13.10;99.90;;;;;;5018768;28;20203;-83
2021/08/03 05:39:30;;;;;;;3.80;3.03;;;13.10;99.90;;;;;;5016656;28;20167;-83
2021/08/03 05:41:57;;;;;;;3.77;2.90;;;13.20;99.90;;;;;;5016054;28;20213;-83
2021/08/03 05:44:22;;;;;;;3.70;2.67;;;13.20;99.90;;;;;;5016071;28;20226;-81
2021/08/03 05:46:48;;;;;;;2.63;2.43;;;13.30;99.90;;;;;;5018361;28;20182;-83
2021/08/03 05:49:14;;;;;;;3.23;2.67;;;13.40;99.90;;;;;;5016468;28;20178;-81
2021/08/03 05:51:40;;;;;;;3.20;2.50;;;13.40;99.90;;;;;;5016780;28;20648;-81
2021/08/03 05:54:05;;;;;;;4.57;3.03;;;13.50;99.90;;;;;;5017435;28;20257;-82
2021/08/03 05:56:31;;;;;;;3.70;2.83;;;13.50;99.90;;;;;;5017867;28;20186;-84
2021/08/03 05:58:57;;;;;;;5.87;2.60;;;13.50;99.90;;;;;;5016303;28;20233;-84
2021/08/03 06:01:23;;;;;;;2.97;2.67;;;13.50;99.90;;;;;;5016768;28;20588;-84
2021/08/03 06:03:48;;;;;;;3.17;2.67;;;13.60;99.90;;;;;;5017933;28;20171;-84
2021/08/03 06:06:15;;;;;;;2.93;2.63;;;13.60;99.90;;;;;;5017681;28;20669;-84
2021/08/03 06:08:43;;;;;;;3.53;2.63;;;13.60;99.90;;;;;;5032993;28;20186;-84
2021/08/03 06:11:16;;;;;;;2.40;2.20;;;13.70;99.90;;;;;;5018493;28;20672;-84
2021/08/03 06:13:46;;;;;;;2.87;2.40;;;13.70;99.90;;;;;;5019936;28;20179;-84
2021/08/03 06:16:16;;;;;;;2.90;2.40;;;13.80;99.90;;;;;;5025065;28;20198;-83
2021/08/03 06:18:44;;;;;;;3.27;2.50;;;13.80;99.90;;;;;;5032299;28;20191;-83
2021/08/03 06:21:10;;;;;;;3.20;2.50;;;14.00;99.90;;;;;;5029329;28;20203;-83
2021/08/03 06:23:37;;;;;;;6.87;2.77;;;14.00;99.90;;;;;;5016054;28;20209;-83
2021/08/03 06:26:03;;;;;;;3.03;2.10;;;14.10;99.90;;;;;;5016826;28;20624;-83
2021/08/03 06:28:28;;;;;;;2.23;2.00;;;14.30;99.90;;;;;;5015864;28;20178;-83
2021/08/03 06:30:54;;;;;;;2.90;2.50;;;14.50;99.90;;;;;;5017471;28;20209;-81
2021/08/03 06:33:22;;;;;;;2.73;2.20;;;14.60;99.90;;;;;;5016385;28;20187;-83
2021/08/03 06:35:49;;;;;;;2.27;1.87;;;14.70;99.90;;;;;;5015241;28;20668;-83
2021/08/03 06:38:15;;;;;;;2.40;2.20;;;14.80;99.90;;;;;;5019461;28;20210;-81
2021/08/03 06:40:50;;;;;;;2.50;2.30;;;14.90;99.90;;;;;;5021934;28;20178;-81
2021/08/03 06:43:17;;;;;;;3.90;2.10;;;14.90;99.90;;;;;;5020212;28;20171;-81
2021/08/03 06:45:53;;;;;;;3.03;1.97;;;14.90;99.90;;;;;;5020070;28;20213;-83
2021/08/03 06:48:25;;;;;;;3.23;2.00;;;15.00;99.90;;;;;;5020730;28;20229;-83
2021/08/03 06:51:07;;;;;;;2.60;2.10;;;15.10;99.90;;;;;;5019975;28;20163;-81
2021/08/03 06:53:37;;;;;;;2.97;2.27;;;15.10;99.90;;;;;;5020306;28;20183;-81
2021/08/03 06:56:03;;;;;;;2.47;2.10;;;15.10;99.90;;;;;;5021588;28;20197;-81
2021/08/03 06:59:08;;;;;;;3.67;2.23;;;15.20;99.90;;;;;;5022638;28;20589;-81
2021/08/03 07:01:44;;;;;;;3.03;2.37;;;15.20;99.90;;;;;;5020729;28;20261;-81
2021/08/03 07:04:12;;;;;;;3.63;2.20;;;15.30;99.90;;;;;;5020609;28;20624;-83
2021/08/03 07:06:43;;;;;;;3.37;1.90;;;15.40;99.90;;;;;;5019111;28;20182;-83
2021/08/03 07:09:10;;;;;;;4.93;2.20;;;15.60;99.90;;;;;;5021866;28;20212;-81
2021/08/03 07:11:37;;;;;;;3.00;1.87;;;15.80;99.90;;;;;;5022695;28;20193;-81
2021/08/03 07:14:03;;;;;;;2.00;1.80;;;15.90;99.90;;;;;;5020401;28;20220;-81
2021/08/03 07:16:29;;;;;;;2.57;2.00;;;16.00;99.90;;;;;;5020753;28;20186;-81
2021/08/03 07:18:58;;;;;;;4.67;1.83;;;16.10;99.90;;;;;;5021079;28;20542;-81
2021/08/03 07:21:27;;;;;;;3.67;2.43;;;16.20;99.90;;;;;;5021288;28;20656;-81
2021/08/03 07:23:57;;;;;;;2.73;2.40;;;16.20;99.90;;;;;;5020582;28;20645;-81
2021/08/03 07:26:24;;;;;;;2.43;2.20;;;16.20;99.90;;;;;;5022126;28;20171;-80
2021/08/03 07:28:50;;;;;;;2.23;1.90;;;16.20;99.90;;;;;;5021518;28;20648;-83
2021/08/03 07:31:16;;;;;;;4.27;2.30;;;16.20;99.90;;;;;;5021937;28;20175;-81
2021/08/03 07:33:41;;;;;;;4.10;2.27;;;16.30;99.90;;;;;;5031141;28;20183;-80
2021/08/03 07:36:07;;;;;;;2.57;2.20;;;16.50;99.90;;;;;;5033294;28;20195;-79
2021/08/03 07:38:33;;;;;;;2.83;2.00;;;16.60;99.90;;;;;;5018431;28;20202;-80
2021/08/03 07:40:59;;;;;;;2.20;2.00;;;16.90;99.90;;;;;;5017240;28;20179;-80
2021/08/03 07:43:24;;;;;;;2.40;1.80;;;17.10;99.90;;;;;;5016633;28;20174;-80
2021/08/03 07:45:50;;;;;;;1.93;1.73;;;17.30;99.90;;;;;;5016468;28;20210;-80
2021/08/03 07:48:16;;;;;;;2.23;2.03;;;17.30;99.90;;;;;;5016456;28;20182;-80
2021/08/03 07:50:41;;;;;;;1.80;1.70;;;17.30;99.90;;;;;;5017389;28;20179;-80
2021/08/03 07:53:07;;;;;;;2.80;2.00;;;17.30;99.90;;;;;;5018798;28;20652;-80
2021/08/03 07:55:33;;;;;;;6.80;2.90;;;17.20;99.90;;;;;;5019447;28;20708;-80
2021/08/03 07:57:59;;;;;;;2.40;1.37;;;17.40;99.90;;;;;;5023181;28;20214;-80
2021/08/03 08:00:24;;;;;;;2.67;1.87;;;17.50;99.90;;;;;;5024701;28;20171;-80
2021/08/03 08:02:50;;;;;;;3.20;1.50;;;17.70;99.90;;;;;;5022971;28;20179;-81
2021/08/03 08:05:16;;;;;;;2.73;1.47;;;18.00;99.90;;;;;;5022816;28;20794;-81
2021/08/03 08:07:42;;;;;;;1.77;1.57;;;18.20;99.90;;;;;;5022148;28;20207;-81
2021/08/03 08:10:08;;;;;;;2.03;1.50;;;18.30;99.90;;;;;;5023264;28;20190;-81
2021/08/03 08:12:34;;;;;;;2.57;1.87;;;18.30;99.90;;;;;;5024038;28;20184;-81
2021/08/03 08:14:59;;;;;;;5.00;1.83;;;18.30;99.90;;;;;;5043996;28;20207;-80
2021/08/03 08:17:25;;;;;;;2.60;1.70;;;18.20;99.90;;;;;;5033731;28;20207;-80
2021/08/03 08:19:51;;;;;;;2.13;1.83;;;18.20;99.90;;;;;;5033998;28;20176;-81
2021/08/03 08:22:16;;;;;;;2.37;1.53;;;18.20;99.90;;;;;;5029055;28;20582;-82
2021/08/03 08:24:42;;;;;;;2.90;2.17;;;18.30;99.90;;;;;;5020502;28;20211;-81
2021/08/03 08:27:08;;;;;;;2.00;1.80;;;18.30;99.90;;;;;;5020116;28;20186;-81
2021/08/03 08:29:34;;;;;;;3.50;1.93;;;18.30;99.90;;;;;;5020267;28;20299;-81
2021/08/03 08:31:59;;;;;;;2.80;1.97;;;18.40;99.90;;;;;;5021425;28;20176;-81
2021/08/03 08:34:25;;;;;;;2.00;1.80;;;18.50;99.90;;;;;;5019457;28;20295;-81
2021/08/03 08:36:51;;;;;;;2.20;1.60;;;18.60;99.90;;;;;;5021779;28;20243;-81
2021/08/03 08:39:16;;;;;;;1.70;1.60;;;18.60;99.90;;;;;;5024896;28;20183;-84
2021/08/03 08:41:44;;;;;;;2.13;1.80;;;18.70;99.90;;;;;;5021626;28;20176;-81
2021/08/03 08:44:10;;;;;;;2.80;2.00;;;18.90;99.90;;;;;;5021928;28;20216;-81
2021/08/03 08:46:37;;;;;;;2.97;2.00;;;19.00;99.90;;;;;;5022706;28;20203;-82
2021/08/03 08:49:04;;;;;;;1.90;1.80;;;19.10;99.90;;;;;;5022131;28;20187;-81
2021/08/03 08:51:30;;;;;;;2.67;2.17;;;19.30;99.90;;;;;;5020755;28;20173;-81
2021/08/03 08:53:58;;;;;;;3.57;2.00;;;19.30;99.90;;;;;;5019195;28;20303;-81
2021/08/03 08:56:23;;;;;;;2.13;1.93;;;19.50;99.90;;;;;;5019462;28;20180;-81
2021/08/03 08:58:49;;;;;;;2.77;1.90;;;19.60;99.90;;;;;;5019635;28;20684;-81
2021/08/03 09:01:14;;;;;;;2.50;2.13;;;19.70;99.90;;;;;;5019991;28;20244;-81
2021/08/03 09:03:41;;;;;;;2.47;1.60;;;19.80;99.90;;;;;;5020107;28;20184;-81
2021/08/03 09:06:07;;;;;;;2.03;1.80;;;19.90;99.90;;;;;;5020070;28;20197;-81
2021/08/03 09:08:34;;;;;;;1.70;1.60;;;19.90;99.90;;;;;;5020007;28;20186;-81
2021/08/03 09:11:09;;;;;;;2.70;1.70;;;19.90;99.90;;;;;;5021414;28;20181;-82
2021/08/03 09:13:53;;;;;;;2.20;1.70;;;19.90;99.90;;;;;;5021055;28;20185;-81
2021/08/03 09:16:21;;;;;;;2.20;1.80;;;20.10;99.90;;;;;;5024670;28;20199;-81
2021/08/03 09:18:48;;;;;;;2.70;1.67;;;20.20;99.90;;;;;;5033563;28;20208;-81
2021/08/03 09:21:40;;;;;;;3.37;1.60;;;20.10;99.90;;;;;;5031663;28;20175;-81
2021/08/03 09:24:05;;;;;;;2.27;1.70;;;20.00;99.90;;;;;;5016196;28;20275;-81
2021/08/03 09:26:46;;;;;;;3.90;1.70;;;19.90;99.90;;;;;;5018871;28;20175;-81
2021/08/03 09:29:16;;;;;;;1.60;1.50;;;19.80;99.90;;;;;;5018168;28;20155;-81
2021/08/03 09:31:55;;;;;;;5.87;1.93;;;19.90;99.90;;;;;;5019148;28;20193;-82
2021/08/03 09:34:21;;;;;;;2.03;1.70;;;19.90;99.90;;;;;;5018499;28;20198;-81
2021/08/03 09:36:47;;;;;;;3.87;1.70;;;20.10;99.90;;;;;;5017279;28;22141;-81
2021/08/03 09:39:40;;;;;;;1.67;1.50;;;20.10;99.90;;;;;;5017296;28;20186;-81
2021/08/03 09:42:27;;;;;;;1.67;1.50;;;20.00;99.90;;;;;;5016580;28;20628;-81
2021/08/03 09:45:00;;;;;;;2.70;1.63;;;19.90;99.90;;;;;;5018140;28;20206;-81
2021/08/03 09:47:28;;;;;;;2.43;2.00;;;19.80;99.90;;;;;;5017073;28;20262;-81
2021/08/03 09:50:06;;;;;;;2.97;1.60;;;19.80;99.90;;;;;;5017942;28;20179;-81
2021/08/03 09:52:35;;;;;;;1.80;1.60;;;19.90;99.90;;;;;;5017061;28;20187;-81
2021/08/03 09:55:11;;;;;;;3.67;1.90;;;20.00;99.90;;;;;;5016829;28;20210;-81
2021/08/03 09:57:38;;;;;;;2.27;2.00;;;20.10;99.90;;;;;;5018650;28;20202;-81
2021/08/03 10:00:26;;;;;;;3.40;2.07;;;20.20;99.90;;;;;;5017036;28;20185;-81
2021/08/03 10:02:55;;;;;;;2.13;1.73;;;20.30;99.90;;;;;;5018110;28;20163;-81
2021/08/03 10:05:22;;;;;;;2.17;1.73;;;20.40;99.90;;;;;;5016639;28;20202;-81
2021/08/03 10:07:48;;;;;;;3.03;1.80;;;20.50;99.90;;;;;;5016867;28;20214;-81
2021/08/03 10:10:14;;;;;;;2.00;1.67;;;20.60;99.90;;;;;;5016944;28;20182;-81
2021/08/03 10:12:40;;;;;;;2.17;1.80;;;20.60;99.90;;;;;;5018703;28;20178;-81
2021/08/03 10:15:10;;;;;;;2.50;2.10;;;20.40;99.90;;;;;;5020131;28;20209;-81
2021/08/03 10:17:37;;;;;;;2.00;1.80;;;20.40;99.90;;;;;;5019280;28;20207;-81
2021/08/03 10:20:04;;;;;;;2.33;1.70;;;20.30;99.90;;;;;;5022703;28;20704;-82
2021/08/03 10:23:03;;;;;;;2.30;1.80;;;20.50;99.90;;;;;;5023992;28;20241;-81
2021/08/03 10:25:36;;;;;;;1.60;1.50;;;20.70;99.90;;;;;;5026567;28;20658;-81
2021/08/03 10:28:25;;;;;;;2.70;2.20;;;20.70;99.90;;;;;;5023565;28;20159;-81
2021/08/03 10:30:51;;;;;;;2.23;2.03;;;20.60;99.90;;;;;;5022593;28;20177;-82
2021/08/03 10:33:54;;;;;;;2.60;1.80;;;20.60;99.90;;;;;;5023745;28;20183;-82
2021/08/03 10:36:41;;;;;;;3.20;2.10;;;20.70;99.90;;;;;;5022547;28;20276;-81
2021/08/03 10:39:08;;;;;;;2.60;2.07;;;20.80;99.90;;;;;;5024618;28;20182;-81
2021/08/03 10:42:00;;;;;;;1.67;1.40;;;20.80;99.90;;;;;;5022790;28;20176;-82
2021/08/03 10:44:54;;;;;;;2.00;1.80;;;21.00;99.90;;;;;;5023102;28;20256;-81
2021/08/03 10:47:32;;;;;;;2.43;1.73;;;21.10;99.90;;;;;;5025650;28;20214;-81
2021/08/03 10:50:07;;;;;;;1.80;1.47;;;21.00;99.90;;;;;;5023066;28;20590;-81
2021/08/03 10:52:48;;;;;;;1.77;1.60;;;21.10;99.90;;;;;;5024971;28;20187;-82
2021/08/03 10:55:32;;;;;;;2.40;1.77;;;21.30;99.90;;;;;;5021296;28;20202;-83
2021/08/03 10:58:10;;;;;;;2.00;1.80;;;21.60;99.90;;;;;;5022441;28;20614;-82
2021/08/03 11:00:54;;;;;;;2.00;1.60;;;21.90;99.90;;;;;;5022774;28;20547;-82
2021/08/03 11:03:35;;;;;;;1.50;1.40;;;22.30;99.90;;;;;;5024486;28;20167;-82
2021/08/03 11:06:06;;;;;;;1.60;1.33;;;22.70;99.90;;;;;;5024570;28;20661;-82
2021/08/03 11:08:33;;;;;;;2.27;1.70;;;23.10;99.90;;;;;;5025461;28;20186;-82
2021/08/03 11:11:22;;;;;;;2.20;1.60;;;23.40;99.90;;;;;;5028048;28;20175;-82
2021/08/03 11:14:04;;;;;;;1.60;1.50;;;23.90;99.90;;;;;;5017299;28;20190;-82
2021/08/03 11:16:30;;;;;;;2.10;1.00;;;24.10;99.90;;;;;;5028480;28;20195;-82
2021/08/03 11:19:03;;;;;;;1.77;1.40;;;24.00;99.90;;;;;;5028155;28;20215;-81
2021/08/03 11:21:50;;;;;;;1.90;1.30;;;24.00;99.90;;;;;;5027888;28;20515;-81
2021/08/03 11:24:31;;;;;;;1.80;0.90;;;24.10;99.90;;;;;;5041677;28;20215;-82
2021/08/03 11:26:58;;;;;;;1.20;1.10;;;23.80;99.90;;;;;;5029804;28;20189;-81
2021/08/03 11:29:36;;;;;;;2.60;1.20;;;23.20;99.90;;;;;;5029582;28;20179;-81
2021/08/03 11:32:19;;;;;;;2.47;1.20;;;22.90;99.90;;;;;;5024807;28;20305;-81
2021/08/03 11:34:47;;;;;;;2.37;1.40;;;22.60;99.90;;;;;;5025684;28;20285;-81
2021/08/03 11:37:20;;;;;;;1.13;1.00;;;22.30;99.90;;;;;;5025922;28;20237;-81
2021/08/03 11:39:50;;;;;;;1.37;1.23;;;22.20;99.90;;;;;;5024507;28;20182;-81
2021/08/03 11:42:20;;;;;;;1.33;1.23;;;22.00;99.90;;;;;;5026033;28;20316;-79
2021/08/03 11:45:05;;;;;;;1.07;0.97;;;21.80;99.90;;;;;;5025608;28;20205;-80
2021/08/03 11:47:39;;;;;;;1.43;1.07;;;21.70;99.90;;;;;;5026687;28;20198;-83
2021/08/03 11:50:06;;;;;;;1.83;1.10;;;22.10;99.90;;;;;;5024381;28;20187;-79
2021/08/03 11:52:32;;;;;;;1.40;1.17;;;22.60;99.90;;;;;;5025687;28;20665;-81
2021/08/03 11:54:58;;;;;;;1.60;1.30;;;22.70;99.90;;;;;;5025816;28;20208;-81
2021/08/03 11:57:38;;;;;;;1.10;1.00;;;23.00;99.90;;;;;;5026115;28;20232;-81
2021/08/03 12:00:08;;;;;;;3.43;1.30;;;23.20;99.90;;;;;;5027482;28;20182;-81
2021/08/03 12:02:34;;;;;;;1.53;1.10;;;23.30;99.90;;;;;;5026537;28;20180;-81
2021/08/03 12:05:14;;;;;;;3.03;1.10;;;23.60;99.90;;;;;;5028873;28;20247;-81
2021/08/03 12:07:49;;;;;;;1.67;1.10;;;24.10;99.90;;;;;;5034731;28;20210;-80
2021/08/03 12:10:16;;;;;;;2.67;0.93;;;24.40;99.90;;;;;;5031978;28;20188;-79
2021/08/03 12:12:44;;;;;;;1.47;1.13;;;24.20;99.90;;;;;;5029261;28;20186;-79
2021/08/03 12:15:12;;;;;;;1.47;1.07;;;24.40;99.90;;;;;;5029528;28;20197;-79
2021/08/03 12:17:38;;;;;;;2.83;1.00;;;24.10;99.90;;;;;;5022242;28;20210;-80
2021/08/03 12:20:21;;;;;;;1.70;1.03;;;23.60;99.90;;;;;;5023616;28;20239;-80
2021/08/03 12:22:46;;;;;;;1.10;1.00;;;23.20;99.90;;;;;;5024253;28;20167;-80
2021/08/03 12:25:12;;;;;;;2.43;1.00;;;23.30;99.90;;;;;;5021080;28;20215;-80
2021/08/03 12:27:44;;;;;;;1.63;1.10;;;24.00;99.90;;;;;;5018049;28;20179;-81
2021/08/03 12:30:36;;;;;;;1.23;0.90;;;24.40;99.90;;;;;;5018669;28;20600;-81
2021/08/03 12:33:04;;;;;;;1.23;0.90;;;24.60;99.90;;;;;;5026859;28;20215;-81
2021/08/03 12:35:30;;;;;;;1.33;1.13;;;24.80;99.90;;;;;;5016511;28;20203;-80
2021/08/03 12:38:17;;;;;;;1.70;1.10;;;25.10;99.90;;;;;;5016960;28;20229;-81
2021/08/03 12:40:43;;;;;;;1.03;0.93;;;25.40;99.90;;;;;;5016623;28;20226;-81
2021/08/03 12:43:08;;;;;;;1.10;1.00;;;25.50;99.90;;;;;;5018627;28;20195;-81
2021/08/03 12:45:35;;;;;;;1.30;1.00;;;25.50;99.90;;;;;;5017604;28;20211;-81
2021/08/03 12:48:02;;;;;;;1.77;0.83;;;25.30;99.90;;;;;;5019973;28;20176;-81
2021/08/03 12:50:30;;;;;;;0.90;0.80;;;24.90;99.90;;;;;;5018107;28;20183;-82
2021/08/03 12:53:00;;;;;;;1.40;1.10;;;25.10;99.90;;;;;;5024304;28;20240;-82
2021/08/03 12:55:42;;;;;;;1.53;1.10;;;25.50;99.90;;;;;;5023373;28;20291;-81
2021/08/03 12:58:08;;;;;;;1.30;1.03;;;25.90;99.90;;;;;;5023442;28;20681;-82
2021/08/03 13:00:35;;;;;;;1.33;1.23;;;25.90;99.90;;;;;;5021804;28;20183;-81
2021/08/03 13:03:07;;;;;;;1.77;0.90;;;25.20;99.90;;;;;;5022952;28;20197;-82